createdAt,value
2019-04-25T00:02:16.625Z,28.07
2019-04-25T00:04:45.645Z,30.17
2019-04-25T00:07:14.864Z,32.13
2019-04-25T00:09:45.546Z,29.18
2019-04-25T00:12:14.687Z,31.05
2019-04-25T00:14:43.777Z,27.15
2019-04-25T00:17:12.862Z,28.83
2019-04-25T00:19:42.531Z,29.37
2019-04-25T00:22:22.865Z,26.33
2019-04-25T00:24:53.358Z,32.40
2019-04-25T00:27:23.745Z,30.45
2019-04-25T00:29:52.967Z,26.60
2019-04-25T00:32:22.329Z,24.23
2019-04-25T00:34:51.846Z,28.90
2019-04-25T00:37:22.568Z,25.62
2019-04-25T00:39:51.856Z,25.57
2019-04-25T00:42:21.206Z,27.67
2019-04-25T00:44:51.539Z,30.15
2019-04-25T00:47:21.650Z,28.25
2019-04-25T00:49:52.107Z,26.73
2019-04-25T00:52:22.803Z,25.80
2019-04-25T00:54:52.691Z,23.15
2019-04-25T00:57:22.605Z,22.45
2019-04-25T00:59:54.093Z,25.82
2019-04-25T01:02:33.025Z,27.20
2019-04-25T01:05:02.094Z,22.73
2019-04-25T01:07:32.395Z,28.73
2019-04-25T01:10:02.437Z,25.55
2019-04-25T01:12:32.245Z,31.62
2019-04-25T01:15:01.713Z,29.27
2019-04-25T01:17:31.460Z,30.00
2019-04-25T01:20:00.602Z,28.20
2019-04-25T01:22:29.646Z,26.30
2019-04-25T01:24:58.691Z,28.38
2019-04-25T01:27:27.829Z,28.05
2019-04-25T01:29:57.066Z,26.40
2019-04-25T01:32:33.602Z,30.55
2019-04-25T01:35:23.779Z,28.57
2019-04-25T01:37:55.279Z,28.57
2019-04-25T01:40:33.410Z,35.00
2019-04-25T01:43:14.270Z,31.00
2019-04-25T01:45:44.178Z,28.90
2019-04-25T01:48:13.735Z,27.30
2019-04-25T01:50:43.764Z,23.80
2019-04-25T01:53:14.479Z,34.70
2019-04-25T01:55:53.304Z,32.15
2019-04-25T01:58:14.647Z,28.98
2019-04-25T02:00:45.205Z,29.95
2019-04-25T02:03:14.174Z,28.60
2019-04-25T02:05:43.846Z,30.95
2019-04-25T02:08:14.317Z,26.55
2019-04-25T02:10:44.885Z,34.00
2019-04-25T02:13:24.546Z,28.70
2019-04-25T02:15:54.871Z,31.10
2019-04-25T02:18:24.066Z,28.95
2019-04-25T02:20:56.580Z,30.95
2019-04-25T02:23:24.055Z,29.77
2019-04-25T02:26:06.739Z,35.28
2019-04-25T02:28:24.103Z,29.90
2019-04-25T02:30:57.316Z,26.77
2019-04-25T02:33:24.323Z,29.87
2019-04-25T02:35:54.346Z,29.35
2019-04-25T02:38:24.447Z,26.80
2019-04-25T02:40:56.289Z,29.57
2019-04-25T02:43:24.466Z,30.85
2019-04-25T02:46:02.212Z,33.65
2019-04-25T02:48:51.546Z,32.70
2019-04-25T02:51:24.359Z,33.05
2019-04-25T02:53:55.911Z,28.50
2019-04-25T02:56:31.191Z,32.03
2019-04-25T02:58:56.616Z,29.40
2019-04-25T03:01:26.397Z,30.40
2019-04-25T03:03:57.461Z,38.63
2019-04-25T03:06:26.626Z,31.10
2019-04-25T03:08:57.819Z,31.37
2019-04-25T03:11:26.525Z,34.80
2019-04-25T03:13:55.702Z,31.68
2019-04-25T03:16:25.229Z,36.83
2019-04-25T03:18:55.856Z,27.95
2019-04-25T03:21:29.505Z,28.90
2019-04-25T03:23:59.555Z,28.85
2019-04-25T03:26:39.732Z,30.80
2019-04-25T03:28:59.945Z,32.55
2019-04-25T03:31:28.850Z,31.00
2019-04-25T03:33:57.888Z,32.25
2019-04-25T03:36:26.827Z,27.30
2019-04-25T03:38:55.704Z,25.82
2019-04-25T03:41:24.680Z,24.15
2019-04-25T03:43:54.185Z,31.07
2019-04-25T03:46:23.442Z,33.30
2019-04-25T03:48:53.874Z,25.62
2019-04-25T03:51:24.016Z,27.58
2019-04-25T03:53:53.633Z,24.92
2019-04-25T03:56:22.724Z,26.75
2019-04-25T03:58:51.804Z,28.45
2019-04-25T04:01:20.807Z,25.10
2019-04-25T04:03:49.685Z,28.12
2019-04-25T04:06:18.685Z,24.55
2019-04-25T04:08:47.605Z,27.58
2019-04-25T04:11:16.485Z,28.67
2019-04-25T04:13:45.425Z,31.12
2019-04-25T04:16:15.965Z,27.52
2019-04-25T04:18:46.725Z,26.42
2019-04-25T04:21:20.102Z,27.22
2019-04-25T04:23:54.193Z,29.27
2019-04-25T04:26:24.325Z,27.13
2019-04-25T04:28:53.404Z,25.82
2019-04-25T04:31:23.562Z,22.00
2019-04-25T04:33:53.244Z,22.32
2019-04-25T04:36:23.702Z,26.23
2019-04-25T04:38:54.352Z,28.75
2019-04-25T04:41:23.955Z,23.15
2019-04-25T04:43:54.140Z,26.07
2019-04-25T04:46:24.035Z,21.87
2019-04-25T04:48:54.104Z,25.82
2019-04-25T04:51:23.945Z,22.05
2019-04-25T04:53:53.730Z,24.47
2019-04-25T04:56:23.964Z,21.70
2019-04-25T04:58:53.923Z,22.82
2019-04-25T05:01:24.863Z,28.38
2019-04-25T05:03:58.205Z,20.82
2019-04-25T05:06:31.907Z,19.92
2019-04-25T05:09:03.350Z,21.55
2019-04-25T05:11:33.526Z,21.68
2019-04-25T05:14:04.007Z,25.57
2019-04-25T05:16:33.244Z,27.62
2019-04-25T05:19:03.697Z,24.50
2019-04-25T05:21:33.694Z,30.52
2019-04-25T05:24:04.109Z,20.37
2019-04-25T05:26:34.125Z,24.27
2019-04-25T05:29:03.624Z,24.57
2019-04-25T05:31:46.308Z,22.77
2019-04-25T05:34:16.875Z,25.10
2019-04-25T05:36:46.006Z,28.65
2019-04-25T05:39:16.715Z,20.95
2019-04-25T05:41:54.010Z,22.35
2019-04-25T05:44:26.388Z,20.68
2019-04-25T05:46:54.115Z,18.02
2019-04-25T05:49:24.331Z,26.33
2019-04-25T05:51:53.943Z,21.30
2019-04-25T05:54:24.775Z,23.27
2019-04-25T05:56:54.488Z,22.02
2019-04-25T05:59:25.531Z,25.75
2019-04-25T06:01:54.166Z,28.45
2019-04-25T06:04:24.632Z,23.87
2019-04-25T06:06:55.174Z,20.80
2019-04-25T06:09:26.407Z,27.50
2019-04-25T06:11:57.425Z,27.67
2019-04-25T06:14:26.367Z,23.55
2019-04-25T06:16:56.972Z,19.55
2019-04-25T06:19:39.345Z,21.62
2019-04-25T06:22:10.114Z,20.20
2019-04-25T06:24:40.626Z,22.10
2019-04-25T06:27:17.146Z,23.57
2019-04-25T06:29:57.611Z,23.22
2019-04-25T06:32:18.305Z,23.10
2019-04-25T06:34:47.275Z,24.30
2019-04-25T06:37:16.289Z,25.80
2019-04-25T06:39:45.245Z,27.37
2019-04-25T06:42:14.266Z,18.25
2019-04-25T06:44:47.894Z,24.43
2019-04-25T06:47:24.793Z,22.90
2019-04-25T06:49:54.737Z,21.87
2019-04-25T06:52:28.234Z,22.87
2019-04-25T06:54:55.029Z,30.20
2019-04-25T06:57:26.644Z,27.02
2019-04-25T06:59:54.621Z,23.35
2019-04-25T07:02:25.409Z,18.48
2019-04-25T07:04:54.146Z,22.73
2019-04-25T07:07:24.498Z,19.55
2019-04-25T07:09:53.720Z,25.88
2019-04-25T07:12:26.574Z,23.57
2019-04-25T07:14:53.905Z,23.00
2019-04-25T07:17:24.203Z,23.87
2019-04-25T07:19:54.133Z,23.22
2019-04-25T07:22:23.976Z,16.23
2019-04-25T07:24:54.040Z,19.45
2019-04-25T07:27:40.928Z,24.10
2019-04-25T07:30:40.099Z,25.52
2019-04-25T07:33:05.432Z,20.15
2019-04-25T07:35:34.685Z,18.67
2019-04-25T07:38:04.632Z,17.50
2019-04-25T07:40:34.759Z,17.98
2019-04-25T07:43:04.862Z,22.80
2019-04-25T07:45:36.156Z,19.92
2019-04-25T07:48:05.412Z,28.42
2019-04-25T07:50:35.407Z,20.48
2019-04-25T07:53:05.717Z,14.63
2019-04-25T07:55:36.353Z,18.98
2019-04-25T07:58:05.974Z,26.25
2019-04-25T08:00:36.333Z,22.48
2019-04-25T08:03:05.553Z,20.85
2019-04-25T08:05:35.685Z,19.32
2019-04-25T08:08:05.391Z,18.42
2019-04-25T08:10:38.097Z,15.98
2019-04-25T08:13:07.152Z,23.65
2019-04-25T08:15:53.863Z,23.40
2019-04-25T08:18:25.246Z,25.20
2019-04-25T08:20:53.757Z,20.77
2019-04-25T08:23:23.852Z,17.82
2019-04-25T08:25:54.384Z,19.75
2019-04-25T08:28:23.752Z,21.30
2019-04-25T08:30:54.861Z,20.75
2019-04-25T08:33:23.796Z,18.07
2019-04-25T08:36:04.273Z,19.27
2019-04-25T08:38:23.888Z,18.60
2019-04-25T08:40:54.326Z,20.15
2019-04-25T08:43:24.356Z,19.55
2019-04-25T08:45:54.424Z,19.55
2019-04-25T08:48:25.071Z,19.40
2019-04-25T08:50:58.731Z,17.98
2019-04-25T08:53:29.171Z,13.28
2019-04-25T08:56:05.518Z,15.58
2019-04-25T08:58:36.556Z,21.27
2019-04-25T09:01:17.252Z,21.23
2019-04-25T09:03:56.832Z,19.65
2019-04-25T09:06:25.894Z,14.60
2019-04-25T09:08:54.852Z,20.10
2019-04-25T09:11:24.495Z,15.60
2019-04-25T09:13:53.848Z,15.63
2019-04-25T09:16:23.923Z,12.25
2019-04-25T09:18:53.975Z,14.05
2019-04-25T09:21:23.793Z,15.20
2019-04-25T09:23:53.533Z,16.62
2019-04-25T09:26:24.124Z,19.27
2019-04-25T09:28:53.719Z,19.20
2019-04-25T09:31:23.638Z,15.40
2019-04-25T09:33:54.290Z,14.68
2019-04-25T09:36:24.087Z,27.77
2019-04-25T09:38:54.693Z,16.82
2019-04-25T09:41:23.760Z,19.25
2019-04-25T09:43:54.947Z,18.70
2019-04-25T09:46:25.662Z,15.58
2019-04-25T09:48:58.941Z,22.65
2019-04-25T09:51:33.608Z,21.55
2019-04-25T09:54:20.561Z,17.60
2019-04-25T09:56:51.053Z,22.95
2019-04-25T09:59:28.083Z,18.92
2019-04-25T10:01:52.401Z,20.32
2019-04-25T10:04:22.973Z,13.90
2019-04-25T10:06:53.492Z,16.23
2019-04-25T10:09:23.811Z,18.92
2019-04-25T10:11:54.616Z,19.55
2019-04-25T10:14:26.691Z,18.00
2019-04-25T10:16:55.773Z,16.17
2019-04-25T10:19:24.661Z,14.43
2019-04-25T10:21:55.236Z,15.38
2019-04-25T10:24:24.312Z,16.20
2019-04-25T10:26:54.710Z,21.80
2019-04-25T10:29:23.871Z,18.50
2019-04-25T10:31:55.459Z,17.52
2019-04-25T10:34:24.184Z,17.48
2019-04-25T10:36:53.342Z,20.97
2019-04-25T10:39:22.879Z,17.48
2019-04-25T10:41:51.881Z,18.90
2019-04-25T10:44:20.941Z,16.48
2019-04-25T10:46:49.972Z,14.18
2019-04-25T10:49:19.001Z,15.83
2019-04-25T10:51:48.048Z,16.52
2019-04-25T10:54:17.143Z,16.70
2019-04-25T10:56:47.137Z,17.15
2019-04-25T10:59:16.701Z,17.95
2019-04-25T11:01:46.365Z,17.25
2019-04-25T11:04:17.692Z,14.90
2019-04-25T11:06:47.182Z,17.05
2019-04-25T11:09:20.872Z,17.60
2019-04-25T11:11:50.403Z,14.87
2019-04-25T11:14:19.564Z,11.85
2019-04-25T11:16:48.792Z,16.05
2019-04-25T11:19:17.700Z,17.20
2019-04-25T11:21:47.564Z,15.58
2019-04-25T11:24:16.655Z,21.55
2019-04-25T11:26:49.928Z,18.70
2019-04-25T11:29:17.992Z,19.65
2019-04-25T11:31:48.962Z,19.70
2019-04-25T11:34:18.350Z,21.48
2019-04-25T11:36:48.422Z,16.97
2019-04-25T11:39:28.310Z,30.97
2019-04-25T11:41:57.470Z,17.42
2019-04-25T11:44:26.423Z,18.95
2019-04-25T11:46:55.702Z,19.98
2019-04-25T11:49:24.608Z,17.27
2019-04-25T11:51:54.474Z,13.60
2019-04-25T11:54:24.265Z,14.18
2019-04-25T11:56:54.743Z,13.50
2019-04-25T11:59:24.350Z,16.52
2019-04-25T12:01:54.801Z,14.33
2019-04-25T12:04:24.034Z,17.10
2019-04-25T12:06:53.231Z,12.05
2019-04-25T12:09:24.099Z,14.25
2019-04-25T12:11:54.454Z,16.97
2019-04-25T12:14:25.196Z,13.38
2019-04-25T12:16:56.099Z,12.63
2019-04-25T12:19:34.487Z,12.20
2019-04-25T12:21:56.724Z,16.00
2019-04-25T12:24:26.351Z,10.93
2019-04-25T12:26:56.022Z,12.25
2019-04-25T12:29:24.999Z,10.93
2019-04-25T12:31:54.904Z,10.63
2019-04-25T12:34:24.329Z,19.75
2019-04-25T12:36:54.468Z,10.23
2019-04-25T12:39:24.300Z,9.50
2019-04-25T12:41:54.470Z,12.07
2019-04-25T12:44:43.452Z,12.58
2019-04-25T12:47:14.146Z,11.83
2019-04-25T12:49:43.776Z,13.15
2019-04-25T12:52:13.069Z,14.55
2019-04-25T12:54:42.031Z,15.88
2019-04-25T12:57:14.180Z,15.45
2019-04-25T12:59:45.013Z,12.25
2019-04-25T13:02:14.222Z,13.08
2019-04-25T13:04:44.284Z,15.50
2019-04-25T13:07:13.772Z,13.05
2019-04-25T13:09:42.833Z,12.60
2019-04-25T13:12:14.618Z,10.80
2019-04-25T13:14:42.581Z,9.20
2019-04-25T13:17:11.590Z,16.00
2019-04-25T13:19:40.952Z,10.20
2019-04-25T13:22:10.006Z,11.48
2019-04-25T13:24:39.052Z,11.83
2019-04-25T13:27:25.020Z,10.95
2019-04-25T13:30:07.943Z,12.13
2019-04-25T13:32:53.580Z,10.20
2019-04-25T13:35:26.701Z,9.95
2019-04-25T13:37:55.701Z,15.10
2019-04-25T13:40:24.822Z,13.08
2019-04-25T13:42:53.863Z,10.80
2019-04-25T13:45:23.582Z,12.13
2019-04-25T13:47:52.782Z,15.23
2019-04-25T13:50:23.946Z,11.53
2019-04-25T13:52:53.395Z,16.05
2019-04-25T13:55:23.987Z,8.70
2019-04-25T13:57:54.800Z,12.60
2019-04-25T14:00:25.137Z,12.30
2019-04-25T14:02:55.306Z,10.18
2019-04-25T14:05:25.700Z,12.85
2019-04-25T14:07:55.101Z,18.60
2019-04-25T14:10:25.213Z,11.18
2019-04-25T14:12:54.902Z,11.93
2019-04-25T14:15:25.371Z,16.35
2019-04-25T14:18:04.982Z,11.57
2019-04-25T14:20:44.901Z,12.53
2019-04-25T14:23:15.092Z,14.07
2019-04-25T14:25:44.334Z,17.37
2019-04-25T14:28:14.142Z,16.25
2019-04-25T14:30:43.588Z,19.17
2019-04-25T14:33:13.589Z,14.75
2019-04-25T14:35:42.703Z,11.05
2019-04-25T14:38:11.574Z,14.23
2019-04-25T14:40:42.261Z,13.88
2019-04-25T14:43:11.185Z,12.47
2019-04-25T14:45:44.328Z,14.00
2019-04-25T14:48:10.821Z,13.20
2019-04-25T14:50:39.743Z,13.75
2019-04-25T14:53:08.630Z,11.60
2019-04-25T14:55:55.462Z,13.20
2019-04-25T14:58:26.186Z,12.28
2019-04-25T15:00:55.431Z,10.95
2019-04-25T15:03:24.461Z,17.67
2019-04-25T15:05:53.582Z,11.90
2019-04-25T15:08:22.662Z,14.00
2019-04-25T15:10:51.741Z,12.05
2019-04-25T15:13:21.029Z,13.88
2019-04-25T15:15:49.915Z,16.27
2019-04-25T15:18:18.950Z,13.20
2019-04-25T15:20:47.950Z,13.20
2019-04-25T15:23:17.036Z,11.25
2019-04-25T15:25:45.981Z,11.63
2019-04-25T15:28:15.104Z,11.22
2019-04-25T15:30:44.180Z,13.95
2019-04-25T15:33:13.263Z,10.23
2019-04-25T15:35:55.790Z,13.58
2019-04-25T15:38:41.061Z,9.40
2019-04-25T15:41:20.787Z,13.08
2019-04-25T15:44:06.502Z,16.65
2019-04-25T15:46:37.181Z,13.90
2019-04-25T15:49:06.543Z,12.03
2019-04-25T15:51:35.662Z,16.20
2019-04-25T15:54:05.232Z,12.70
2019-04-25T15:56:34.676Z,12.50
2019-04-25T15:59:03.910Z,11.95
2019-04-25T16:01:33.021Z,14.98
2019-04-25T16:04:01.993Z,13.68
2019-04-25T16:06:31.923Z,13.50
2019-04-25T16:09:01.020Z,16.50
2019-04-25T16:11:30.207Z,11.75
2019-04-25T16:13:59.190Z,18.80
2019-04-25T16:16:28.334Z,12.05
2019-04-25T16:18:57.461Z,14.20
2019-04-25T16:21:26.762Z,15.60
2019-04-25T16:23:56.901Z,16.57
2019-04-25T16:26:26.976Z,17.48
2019-04-25T16:28:56.942Z,12.25
2019-04-25T16:31:28.953Z,12.47
2019-04-25T16:33:57.502Z,14.25
2019-04-25T16:36:26.582Z,13.62
2019-04-25T16:38:55.582Z,14.33
2019-04-25T16:41:24.782Z,12.03
2019-04-25T16:44:01.023Z,15.23
2019-04-25T16:46:30.735Z,14.60
2019-04-25T16:48:59.740Z,16.23
2019-04-25T16:51:29.293Z,12.33
2019-04-25T16:53:58.383Z,14.35
2019-04-25T16:56:28.268Z,15.70
2019-04-25T16:58:57.920Z,11.15
2019-04-25T17:01:27.226Z,14.20
2019-04-25T17:03:56.590Z,15.80
2019-04-25T17:06:25.862Z,13.03
2019-04-25T17:08:54.942Z,12.37
2019-04-25T17:11:23.983Z,11.12
2019-04-25T17:14:10.866Z,14.78
2019-04-25T17:16:50.583Z,12.75
2019-04-25T17:19:37.342Z,14.68
2019-04-25T17:22:06.541Z,15.48
2019-04-25T17:24:35.421Z,13.05
2019-04-25T17:27:04.860Z,9.63
2019-04-25T17:29:34.628Z,16.85
2019-04-25T17:32:05.384Z,19.50
2019-04-25T17:34:36.625Z,12.37
2019-04-25T17:37:10.145Z,13.38
2019-04-25T17:39:40.799Z,13.00
2019-04-25T17:42:09.942Z,13.18
2019-04-25T17:44:39.032Z,13.38
2019-04-25T17:47:07.992Z,15.78
2019-04-25T17:49:36.993Z,12.10
2019-04-25T17:52:06.141Z,15.63
2019-04-25T17:54:35.229Z,12.88
2019-04-25T17:57:04.594Z,17.32
2019-04-25T17:59:34.716Z,16.57
2019-04-25T18:02:04.285Z,11.10
2019-04-25T18:04:34.166Z,14.00
2019-04-25T18:07:03.631Z,12.23
2019-04-25T18:09:32.741Z,18.23
2019-04-25T18:12:01.830Z,15.18
2019-04-25T18:14:30.821Z,12.45
2019-04-25T18:16:59.902Z,14.23
2019-04-25T18:19:34.029Z,12.47
2019-04-25T18:22:11.499Z,18.17
2019-04-25T18:24:57.269Z,11.78
2019-04-25T18:27:27.901Z,14.28
2019-04-25T18:29:56.951Z,14.05
2019-04-25T18:32:27.506Z,14.90
2019-04-25T18:35:10.422Z,15.65
2019-04-25T18:37:52.663Z,12.55
2019-04-25T18:40:29.381Z,19.82
2019-04-25T18:43:14.942Z,14.10
2019-04-25T18:45:46.481Z,15.45
2019-04-25T18:48:15.640Z,13.78
2019-04-25T18:50:45.462Z,14.43
2019-04-25T18:53:19.261Z,13.22
2019-04-25T18:55:56.061Z,13.98
2019-04-25T18:58:29.544Z,14.25
2019-04-25T19:01:00.342Z,16.32
2019-04-25T19:03:39.701Z,16.27
2019-04-25T19:06:10.358Z,11.80
2019-04-25T19:08:39.679Z,15.85
2019-04-25T19:11:08.872Z,13.43
2019-04-25T19:13:38.800Z,15.98
2019-04-25T19:16:08.741Z,20.45
2019-04-25T19:18:38.814Z,16.85
2019-04-25T19:21:10.143Z,18.32
2019-04-25T19:23:39.391Z,16.02
2019-04-25T19:26:09.621Z,20.72
2019-04-25T19:28:39.977Z,17.45
2019-04-25T19:31:09.461Z,22.07
2019-04-25T19:33:48.349Z,17.55
2019-04-25T19:36:29.365Z,19.92
2019-04-25T19:39:11.549Z,13.78
2019-04-25T19:41:43.792Z,13.98
2019-04-25T19:44:15.478Z,16.97
2019-04-25T19:46:47.929Z,15.60
2019-04-25T19:49:29.866Z,19.85
2019-04-25T19:52:06.813Z,17.77
2019-04-25T19:54:40.899Z,18.32
2019-04-25T19:57:19.108Z,18.02
2019-04-25T19:59:57.864Z,18.23
2019-04-25T20:02:38.880Z,17.32
2019-04-25T20:05:24.078Z,18.98
2019-04-25T20:07:55.369Z,13.32
2019-04-25T20:10:29.776Z,17.32
2019-04-25T20:12:59.925Z,20.48
2019-04-25T20:15:29.777Z,14.47
2019-04-25T20:17:59.181Z,17.60
2019-04-25T20:20:28.077Z,13.72
2019-04-25T20:22:56.956Z,19.02
2019-04-25T20:25:25.839Z,15.93
2019-04-25T20:27:55.390Z,19.87
2019-04-25T20:30:24.477Z,21.25
2019-04-25T20:32:53.599Z,19.60
2019-04-25T20:35:22.587Z,18.57
2019-04-25T20:37:51.470Z,19.50
2019-04-25T20:40:20.541Z,16.67
2019-04-25T20:42:49.876Z,19.98
2019-04-25T20:45:19.208Z,18.77
2019-04-25T20:47:48.309Z,14.98
2019-04-25T20:50:17.400Z,15.58
2019-04-25T20:52:47.316Z,18.50
2019-04-25T20:55:16.511Z,18.85
2019-04-25T20:57:45.421Z,18.27
2019-04-25T21:00:18.221Z,17.07
2019-04-25T21:02:48.326Z,19.98
2019-04-25T21:05:17.391Z,19.07
2019-04-25T21:07:46.351Z,18.07
2019-04-25T21:10:15.261Z,21.07
2019-04-25T21:12:44.268Z,14.20
2019-04-25T21:15:26.510Z,16.48
2019-04-25T21:18:06.100Z,19.52
2019-04-25T21:20:35.100Z,18.32
2019-04-25T21:23:04.070Z,12.98
2019-04-25T21:25:33.112Z,20.35
2019-04-25T21:28:02.061Z,15.83
2019-04-25T21:30:31.182Z,18.62
2019-04-25T21:33:00.235Z,19.00
2019-04-25T21:35:29.423Z,23.42
2019-04-25T21:37:59.561Z,16.25
2019-04-25T21:40:39.499Z,18.37
2019-04-25T21:43:13.501Z,17.85
2019-04-25T21:45:42.830Z,19.98
2019-04-25T21:48:12.182Z,19.70
2019-04-25T21:50:41.421Z,17.10
2019-04-25T21:53:10.670Z,21.17
2019-04-25T21:55:39.790Z,21.55
2019-04-25T21:58:09.182Z,18.90
2019-04-25T22:00:52.503Z,22.10
2019-04-25T22:03:24.382Z,22.75
2019-04-25T22:05:54.166Z,25.30
2019-04-25T22:08:24.230Z,20.15
2019-04-25T22:10:53.668Z,24.45
2019-04-25T22:13:22.621Z,25.05
2019-04-25T22:15:51.902Z,22.40
2019-04-25T22:18:21.260Z,22.65
2019-04-25T22:20:50.358Z,18.85
2019-04-25T22:23:19.717Z,21.27
2019-04-25T22:25:49.030Z,22.80
2019-04-25T22:28:18.462Z,23.67
2019-04-25T22:30:49.261Z,29.50
2019-04-25T22:33:19.951Z,22.45
2019-04-25T22:35:53.621Z,20.45
2019-04-25T22:40:51.061Z,19.65
2019-04-25T22:43:21.301Z,26.70
2019-04-25T22:45:50.621Z,27.62
2019-04-25T22:48:21.180Z,23.05
2019-04-25T22:50:50.422Z,22.95
2019-04-25T22:53:22.877Z,24.00
2019-04-25T22:55:50.101Z,27.13
2019-04-25T22:58:19.180Z,22.42
2019-04-25T23:00:48.300Z,26.55
2019-04-25T23:03:18.903Z,29.42
2019-04-25T23:05:49.505Z,25.70
2019-04-25T23:08:18.744Z,27.25
2019-04-25T23:10:47.822Z,37.42
2019-04-25T23:13:16.865Z,23.00
2019-04-25T23:15:45.821Z,26.15
2019-04-25T23:18:14.983Z,35.55
2019-04-25T23:20:43.940Z,24.63
2019-04-25T23:23:13.797Z,29.77
2019-04-25T23:26:00.878Z,50.95
2019-04-25T23:28:31.903Z,22.82
2019-04-25T23:31:20.180Z,29.90
2019-04-25T23:33:49.302Z,29.60
2019-04-25T23:36:18.663Z,24.43
2019-04-25T23:38:47.824Z,26.00
2019-04-25T23:41:17.101Z,27.65
2019-04-25T23:43:46.261Z,25.52
2019-04-25T23:46:16.281Z,27.00
2019-04-25T23:48:45.221Z,27.13
2019-04-25T23:51:14.359Z,24.30
2019-04-25T23:53:44.381Z,23.05
2019-04-25T23:56:13.384Z,26.52
2019-04-25T23:58:42.581Z,22.75
